createdAt,value
2022-11-01T00:04:55.783Z,7.00
2022-11-01T00:09:57.132Z,7.07
2022-11-01T00:14:58.481Z,6.22
2022-11-01T00:19:59.876Z,6.82
2022-11-01T00:25:01.225Z,6.20
2022-11-01T00:30:02.790Z,6.55
2022-11-01T00:35:04.333Z,6.90
2022-11-01T00:40:05.915Z,6.43
2022-11-01T00:45:07.545Z,6.90
2022-11-01T00:50:09.001Z,6.88
2022-11-01T00:55:10.328Z,7.32
2022-11-01T01:00:12.642Z,6.63
2022-11-01T01:05:13.944Z,6.32
2022-11-01T01:10:15.366Z,6.85
2022-11-01T01:15:16.780Z,7.47
2022-11-01T01:20:18.255Z,7.38
2022-11-01T01:25:20.916Z,6.57
2022-11-01T01:30:22.247Z,6.28
2022-11-01T01:35:23.603Z,6.97
2022-11-01T01:40:24.955Z,5.70
2022-11-01T01:45:31.146Z,6.03
2022-11-01T01:50:37.475Z,6.05
2022-11-01T01:55:45.741Z,6.50
2022-11-01T02:00:47.294Z,6.28
2022-11-01T02:05:52.086Z,6.00
2022-11-01T02:11:00.659Z,6.82
2022-11-01T02:16:25.082Z,5.95
2022-11-01T02:21:29.607Z,7.28
2022-11-01T02:26:31.227Z,5.95
2022-11-01T02:31:42.707Z,5.53
2022-11-01T02:36:45.752Z,5.78
2022-11-01T02:41:51.306Z,5.80
2022-11-01T02:47:02.019Z,6.50
2022-11-01T02:52:04.990Z,5.63
2022-11-01T02:57:32.546Z,5.60
2022-11-01T03:02:39.741Z,6.00
2022-11-01T03:07:43.249Z,5.20
2022-11-01T03:12:53.810Z,6.25
2022-11-01T03:18:01.503Z,5.97
2022-11-01T03:23:03.157Z,5.85
2022-11-01T03:28:06.818Z,5.28
2022-11-01T03:33:09.219Z,5.45
2022-11-01T03:38:13.298Z,5.05
2022-11-01T03:43:15.431Z,4.20
2022-11-01T03:48:16.856Z,4.18
2022-11-01T03:53:18.588Z,3.55
2022-11-01T03:58:19.985Z,3.38
2022-11-01T04:03:21.324Z,3.20
2022-11-01T04:08:22.709Z,2.38
2022-11-01T04:13:24.054Z,2.70
2022-11-01T04:18:43.888Z,2.20
2022-11-01T04:23:46.122Z,1.98
2022-11-01T04:28:57.241Z,1.80
2022-11-01T04:33:59.510Z,1.52
2022-11-01T04:39:00.846Z,2.45
2022-11-01T04:44:02.226Z,1.63
2022-11-01T04:49:03.535Z,1.92
2022-11-01T04:54:05.101Z,1.65
2022-11-01T04:59:06.677Z,1.65
2022-11-01T05:04:08.038Z,1.40
2022-11-01T05:09:09.399Z,1.25
2022-11-01T05:14:10.779Z,2.05
2022-11-01T05:19:12.131Z,1.65
2022-11-01T05:24:13.449Z,1.48
2022-11-01T05:34:36.080Z,2.70
2022-11-01T05:39:37.452Z,2.75
2022-11-01T05:44:38.780Z,2.17
2022-11-01T05:49:40.200Z,2.10
2022-11-01T05:54:41.580Z,2.53
2022-11-01T05:59:42.952Z,2.15
2022-11-01T06:04:44.302Z,1.77
2022-11-01T06:09:46.032Z,2.08
2022-11-01T06:14:47.392Z,2.55
2022-11-01T06:19:48.773Z,2.10
2022-11-01T06:24:50.295Z,2.15
2022-11-01T06:29:51.664Z,1.92
2022-11-01T06:34:53.048Z,2.22
2022-11-01T06:39:54.399Z,2.45
2022-11-01T06:44:55.751Z,2.33
2022-11-01T06:49:57.112Z,2.50
2022-11-01T06:54:59.072Z,1.90
2022-11-01T07:00:00.435Z,2.03
2022-11-01T07:05:01.853Z,2.63
2022-11-01T07:10:03.412Z,2.42
2022-11-01T07:15:05.002Z,2.67
2022-11-01T07:20:06.681Z,2.55
2022-11-01T07:25:08.108Z,2.92
2022-11-01T07:30:09.835Z,2.17
2022-11-01T07:35:11.211Z,3.03
2022-11-01T07:40:12.904Z,2.53
2022-11-01T07:45:14.431Z,3.05
2022-11-01T07:50:16.019Z,2.90
2022-11-01T07:55:18.053Z,3.55
2022-11-01T08:00:19.488Z,2.83
2022-11-01T08:05:20.916Z,2.67
2022-11-01T08:10:22.235Z,2.85
2022-11-01T08:15:23.576Z,3.03
2022-11-01T08:20:25.621Z,3.17
2022-11-01T08:25:27.002Z,2.83
2022-11-01T08:30:28.356Z,3.72
2022-11-01T08:35:30.268Z,3.58
2022-11-01T08:40:32.418Z,2.78
2022-11-01T08:45:35.856Z,2.53
2022-11-01T08:50:37.624Z,3.05
2022-11-01T08:55:39.081Z,3.50
2022-11-01T09:00:40.511Z,3.67
2022-11-01T09:05:41.898Z,3.83
2022-11-01T09:10:43.310Z,3.20
2022-11-01T09:15:44.649Z,4.68
2022-11-01T09:20:52.730Z,4.00
2022-11-01T09:25:54.096Z,2.90
2022-11-01T09:31:01.697Z,2.78
2022-11-01T09:36:16.853Z,3.20
2022-11-01T09:41:24.224Z,2.55
2022-11-01T09:46:28.631Z,3.72
2022-11-01T09:51:30.982Z,2.35
2022-11-01T09:56:35.347Z,2.80
2022-11-01T10:01:48.764Z,2.72
2022-11-01T10:06:53.988Z,2.92
2022-11-01T10:11:55.384Z,2.13
2022-11-01T10:17:15.704Z,2.60
2022-11-01T10:22:26.223Z,2.78
2022-11-01T10:27:46.212Z,2.63
2022-11-01T10:38:25.030Z,3.20
2022-11-01T10:43:37.731Z,2.45
2022-11-01T10:48:44.388Z,3.17
2022-11-01T10:53:47.682Z,3.53
2022-11-01T10:58:53.708Z,2.50
2022-11-01T11:03:57.255Z,2.10
2022-11-01T11:08:59.752Z,2.17
2022-11-01T11:14:02.174Z,3.45
2022-11-01T11:19:20.244Z,2.88
2022-11-01T11:24:23.454Z,2.78
2022-11-01T11:29:36.966Z,2.60
2022-11-01T11:34:38.558Z,2.80
2022-11-01T11:39:40.727Z,2.50
2022-11-01T11:44:43.575Z,2.00
2022-11-01T11:49:47.363Z,2.50
2022-11-01T11:54:49.060Z,2.25
2022-11-01T11:59:55.244Z,2.28
2022-11-01T12:04:58.271Z,2.50
2022-11-01T12:10:02.351Z,2.25
2022-11-01T12:15:23.698Z,2.28
2022-11-01T12:20:25.597Z,1.95
2022-11-01T12:25:26.955Z,2.20
2022-11-01T12:30:30.818Z,2.67
2022-11-01T12:35:42.071Z,2.08
2022-11-01T12:40:45.001Z,1.95
2022-11-01T12:45:46.365Z,2.65
2022-11-01T12:51:10.789Z,2.00
2022-11-01T12:56:12.252Z,2.30
2022-11-01T13:01:13.867Z,1.70
2022-11-01T13:06:28.400Z,2.17
2022-11-01T13:11:41.794Z,2.08
2022-11-01T13:16:46.028Z,2.50
2022-11-01T13:21:56.293Z,1.75
2022-11-01T13:27:06.909Z,2.15
2022-11-01T13:32:18.199Z,1.90
2022-11-01T13:37:25.481Z,1.88
2022-11-01T13:42:33.965Z,1.70
2022-11-01T13:47:56.571Z,1.50
2022-11-01T13:53:03.731Z,1.92
2022-11-01T13:58:06.836Z,1.77
2022-11-01T14:03:24.565Z,1.52
2022-11-01T14:08:27.828Z,1.52
2022-11-01T14:13:49.876Z,2.10
2022-11-01T14:19:03.377Z,1.70
2022-11-01T14:24:16.711Z,2.15
2022-11-01T14:29:18.193Z,2.10
2022-11-01T14:34:32.041Z,1.63
2022-11-01T14:39:47.571Z,1.58
2022-11-01T14:45:00.191Z,1.65
2022-11-01T14:50:05.766Z,1.50
2022-11-01T14:55:35.055Z,1.70
2022-11-01T15:00:36.700Z,1.70
2022-11-01T15:05:48.808Z,2.10
2022-11-01T15:10:54.612Z,1.75
2022-11-01T15:16:04.720Z,1.67
2022-11-01T15:21:06.995Z,2.17
2022-11-01T15:26:09.851Z,1.58
2022-11-01T15:31:11.635Z,2.15
2022-11-01T15:36:20.071Z,2.08
2022-11-01T15:41:22.052Z,1.73
2022-11-01T15:46:25.308Z,1.70
2022-11-01T15:51:27.963Z,1.60
2022-11-01T15:56:40.871Z,2.13
2022-11-01T16:01:45.753Z,2.35
2022-11-01T16:06:52.222Z,1.75
2022-11-01T16:11:58.533Z,1.80
2022-11-01T16:17:04.372Z,1.67
2022-11-01T16:22:25.813Z,1.60
2022-11-01T16:27:28.020Z,2.08
2022-11-01T16:32:35.949Z,1.80
2022-11-01T16:37:43.237Z,2.05
2022-11-01T16:42:44.739Z,1.63
2022-11-01T16:47:46.123Z,1.70
2022-11-01T16:52:47.601Z,2.00
2022-11-01T16:57:49.279Z,2.47
2022-11-01T17:02:50.852Z,2.30
2022-11-01T17:07:52.244Z,2.28
2022-11-01T17:12:57.627Z,4.00
2022-11-01T17:18:03.532Z,2.22
2022-11-01T17:29:25.395Z,2.10
2022-11-01T17:34:49.301Z,2.15
2022-11-01T17:39:50.716Z,2.40
2022-11-01T17:44:52.149Z,1.80
2022-11-01T17:49:55.255Z,2.70
2022-11-01T17:54:56.675Z,2.20
2022-11-01T17:59:58.016Z,2.15
2022-11-01T18:04:59.441Z,2.50
2022-11-01T18:10:00.825Z,2.10
2022-11-01T18:15:22.289Z,2.00
2022-11-01T18:20:57.078Z,2.13
2022-11-01T18:25:58.514Z,1.90
2022-11-01T18:31:01.082Z,1.90
2022-11-01T18:36:06.499Z,2.17
2022-11-01T18:41:12.955Z,2.03
2022-11-01T18:46:25.655Z,2.10
2022-11-01T18:51:30.201Z,2.42
2022-11-01T18:56:31.744Z,2.28
2022-11-01T19:01:33.476Z,1.90
2022-11-01T19:06:35.037Z,1.88
2022-11-01T19:11:36.416Z,2.50
2022-11-01T19:16:37.953Z,2.20
2022-11-01T19:21:39.544Z,2.60
2022-11-01T19:26:41.905Z,2.13
2022-11-01T19:31:44.732Z,2.38
2022-11-01T19:36:46.349Z,2.45
2022-11-01T19:41:48.119Z,2.00
2022-11-01T19:46:52.223Z,1.85
2022-11-01T19:52:08.763Z,1.70
2022-11-01T19:57:16.057Z,1.63
2022-11-01T20:02:21.063Z,1.50
2022-11-01T20:07:26.871Z,1.50
2022-11-01T20:12:28.426Z,1.70
2022-11-01T20:17:29.869Z,1.58
2022-11-01T20:22:31.476Z,1.33
2022-11-01T20:27:33.147Z,1.30
2022-11-01T20:32:34.662Z,1.80
2022-11-01T20:37:37.790Z,1.90
2022-11-01T20:42:41.001Z,1.65
2022-11-01T20:47:46.222Z,1.50
2022-11-01T20:52:51.258Z,1.98
2022-11-01T20:57:52.794Z,1.73
2022-11-01T21:02:56.397Z,1.83
2022-11-01T21:08:08.574Z,2.00
2022-11-01T21:13:21.739Z,1.88
2022-11-01T21:18:32.995Z,2.20
2022-11-01T21:23:37.248Z,1.83
2022-11-01T21:28:45.948Z,2.22
2022-11-01T21:33:50.257Z,2.58
2022-11-01T21:38:59.587Z,2.65
2022-11-01T21:44:10.553Z,2.30
2022-11-01T21:49:19.504Z,2.45
2022-11-01T21:54:21.156Z,2.10
2022-11-01T21:59:23.076Z,1.83
2022-11-01T22:04:28.522Z,2.25
2022-11-01T22:09:31.424Z,1.77
2022-11-01T22:14:35.995Z,1.90
2022-11-01T22:19:37.666Z,1.90
2022-11-01T22:24:39.243Z,1.67
2022-11-01T22:29:40.675Z,1.58
2022-11-01T22:34:42.038Z,1.55
2022-11-01T22:39:43.423Z,1.83
2022-11-01T22:44:48.682Z,2.13
2022-11-01T22:49:53.484Z,1.60
2022-11-01T22:55:13.655Z,1.60
2022-11-01T23:00:36.142Z,1.77
2022-11-01T23:05:37.802Z,2.45
2022-11-01T23:10:39.143Z,1.52
2022-11-01T23:15:40.521Z,1.70
2022-11-01T23:20:44.456Z,1.77
2022-11-01T23:25:46.205Z,2.08
2022-11-01T23:30:48.658Z,1.40
2022-11-01T23:35:52.036Z,1.92
2022-11-01T23:40:54.939Z,1.75
2022-11-01T23:45:56.349Z,2.05
2022-11-01T23:50:58.219Z,1.83
2022-11-01T23:56:00.152Z,1.85
